New Hempstead, New York
Current Conditions -  °F | °C
As of 9:56 AM on Wednesday 26 Nov 2014 (Local Time) from KHPN Reporting Station
Light Snow Light Snow  
Wind Chill: 34°   Ceiling: 300
Heat Index: 34°   Visibility: 1.5mi
Dew Point: 32°   Wind: 3mph
Humidity: 92%   Direction: 360°N
Pressure: 30.12"   Gusts: NA
Location:  41.1194°N, 74.0479°W
Report Text: KHPN 261456Z 36003KT 1 1/2SM -RASN VV003 01/00 A3012 RMK AO2 SLP205 P0013 60026 T00110000 55006
Loading
Personal Weather Stations






























Interactive Weather Map New forecast layout! Learn more

10-Day Weather Forecast

Advertisements
Track Severe Weather on mobile